sensor_id;sensor_type;location;lat;lon;timestamp;pressure;altitude;pressure_sealevel;temperature;humidity
39739;BME280;25422;48.286;8.484;2024-03-06T00:01:42;94025.69;;;1.45;100.00
39739;BME280;25422;48.286;8.484;2024-03-06T00:04:08;94020.53;;;1.45;100.00
39739;BME280;25422;48.286;8.484;2024-03-06T00:06:33;94027.47;;;1.44;100.00
39739;BME280;25422;48.286;8.484;2024-03-06T00:08:59;94025.22;;;1.40;100.00
39739;BME280;25422;48.286;8.484;2024-03-06T00:11:25;94024.28;;;1.41;100.00
39739;BME280;25422;48.286;8.484;2024-03-06T00:13:50;94027.59;;;1.43;100.00
39739;BME280;25422;48.286;8.484;2024-03-06T00:16:16;94025.22;;;1.40;100.00
39739;BME280;25422;48.286;8.484;2024-03-06T00:18:42;94027.00;;;1.39;100.00
39739;BME280;25422;48.286;8.484;2024-03-06T00:21:07;94024.41;;;1.39;100.00
39739;BME280;25422;48.286;8.484;2024-03-06T00:23:32;94021.16;;;1.37;100.00
39739;BME280;25422;48.286;8.484;2024-03-06T00:25:58;94017.59;;;1.38;100.00
39739;BME280;25422;48.286;8.484;2024-03-06T00:28:23;94022.66;;;1.40;100.00
39739;BME280;25422;48.286;8.484;2024-03-06T00:30:49;94026.75;;;1.42;100.00
39739;BME280;25422;48.286;8.484;2024-03-06T00:33:15;94029.31;;;1.42;100.00
39739;BME280;25422;48.286;8.484;2024-03-06T00:35:40;94029.56;;;1.39;100.00
39739;BME280;25422;48.286;8.484;2024-03-06T00:38:05;94022.88;;;1.37;100.00
39739;BME280;25422;48.286;8.484;2024-03-06T00:40:31;94027.34;;;1.34;100.00
39739;BME280;25422;48.286;8.484;2024-03-06T00:42:57;94033.44;;;1.33;100.00
39739;BME280;25422;48.286;8.484;2024-03-06T00:45:23;94030.06;;;1.33;100.00
39739;BME280;25422;48.286;8.484;2024-03-06T00:47:48;94038.47;;;1.35;100.00
39739;BME280;25422;48.286;8.484;2024-03-06T00:50:14;94040.13;;;1.36;100.00
39739;BME280;25422;48.286;8.484;2024-03-06T00:52:42;94041.84;;;1.35;100.00
39739;BME280;25422;48.286;8.484;2024-03-06T00:55:09;94046.09;;;1.37;100.00
39739;BME280;25422;48.286;8.484;2024-03-06T00:57:35;94043.50;;;1.37;100.00
39739;BME280;25422;48.286;8.484;2024-03-06T01:00:02;94043.38;;;1.38;100.00
39739;BME280;25422;48.286;8.484;2024-03-06T01:02:31;94043.25;;;1.40;100.00
39739;BME280;25422;48.286;8.484;2024-03-06T01:04:56;94046.94;;;1.37;100.00
39739;BME280;25422;48.286;8.484;2024-03-06T01:07:22;94047.97;;;1.34;100.00
39739;BME280;25422;48.286;8.484;2024-03-06T01:09:47;94059.91;;;1.35;100.00
39739;BME280;25422;48.286;8.484;2024-03-06T01:12:13;94053.56;;;1.40;100.00
39739;BME280;25422;48.286;8.484;2024-03-06T01:14:38;94060.63;;;1.38;100.00
39739;BME280;25422;48.286;8.484;2024-03-06T01:17:04;94058.84;;;1.38;100.00
39739;BME280;25422;48.286;8.484;2024-03-06T01:19:30;94056.53;;;1.35;100.00
39739;BME280;25422;48.286;8.484;2024-03-06T01:21:55;94057.31;;;1.35;100.00
39739;BME280;25422;48.286;8.484;2024-03-06T01:24:21;94059.34;;;1.32;100.00
39739;BME280;25422;48.286;8.484;2024-03-06T01:26:46;94056.97;;;1.29;100.00
39739;BME280;25422;48.286;8.484;2024-03-06T01:29:12;94065.78;;;1.26;100.00
39739;BME280;25422;48.286;8.484;2024-03-06T01:31:37;94061.78;;;1.22;100.00
39739;BME280;25422;48.286;8.484;2024-03-06T01:34:02;94052.63;;;1.18;100.00
39739;BME280;25422;48.286;8.484;2024-03-06T01:36:28;94061.44;;;1.15;100.00
39739;BME280;25422;48.286;8.484;2024-03-06T01:38:53;94057.09;;;1.16;100.00
39739;BME280;25422;48.286;8.484;2024-03-06T01:41:18;94059.66;;;1.16;100.00
39739;BME280;25422;48.286;8.484;2024-03-06T01:43:44;94064.94;;;1.26;100.00
39739;BME280;25422;48.286;8.484;2024-03-06T01:46:10;94065.19;;;1.23;100.00
39739;BME280;25422;48.286;8.484;2024-03-06T01:48:35;94060.28;;;1.20;100.00
39739;BME280;25422;48.286;8.484;2024-03-06T01:51:02;94058.63;;;1.18;100.00
39739;BME280;25422;48.286;8.484;2024-03-06T01:53:31;94060.47;;;1.16;100.00
39739;BME280;25422;48.286;8.484;2024-03-06T01:55:57;94044.81;;;1.20;100.00
39739;BME280;25422;48.286;8.484;2024-03-06T01:58:23;94050.53;;;1.23;100.00
39739;BME280;25422;48.286;8.484;2024-03-06T02:00:50;94057.09;;;1.27;100.00
39739;BME280;25422;48.286;8.484;2024-03-06T02:03:17;94053.59;;;1.28;100.00
39739;BME280;25422;48.286;8.484;2024-03-06T02:05:44;94063.78;;;1.30;100.00
39739;BME280;25422;48.286;8.484;2024-03-06T02:08:10;94063.44;;;1.34;100.00
39739;BME280;25422;48.286;8.484;2024-03-06T02:10:35;94060.63;;;1.38;100.00
39739;BME280;25422;48.286;8.484;2024-03-06T02:13:01;94060.75;;;1.36;100.00
39739;BME280;25422;48.286;8.484;2024-03-06T02:15:26;94068.00;;;1.31;100.00
39739;BME280;25422;48.286;8.484;2024-03-06T02:17:52;94063.09;;;1.28;100.00
39739;BME280;25422;48.286;8.484;2024-03-06T02:20:25;94062.25;;;1.16;100.00
39739;BME280;25422;48.286;8.484;2024-03-06T02:22:50;94055.09;;;1.08;100.00
39739;BME280;25422;48.286;8.484;2024-03-06T02:25:16;94050.53;;;1.12;100.00
39739;BME280;25422;48.286;8.484;2024-03-06T02:27:43;94054.97;;;1.10;100.00
39739;BME280;25422;48.286;8.484;2024-03-06T02:30:09;94058.13;;;1.13;100.00
39739;BME280;25422;48.286;8.484;2024-03-06T02:32:36;94056.59;;;1.11;100.00
39739;BME280;25422;48.286;8.484;2024-03-06T02:35:02;94049.97;;;1.20;100.00
39739;BME280;25422;48.286;8.484;2024-03-06T02:37:34;94053.22;;;1.22;100.00
39739;BME280;25422;48.286;8.484;2024-03-06T02:39:59;94055.34;;;1.28;100.00
39739;BME280;25422;48.286;8.484;2024-03-06T02:42:25;94055.47;;;1.26;100.00
39739;BME280;25422;48.286;8.484;2024-03-06T02:44:51;94055.22;;;1.29;100.00
39739;BME280;25422;48.286;8.484;2024-03-06T02:47:16;94058.13;;;1.25;100.00
39739;BME280;25422;48.286;8.484;2024-03-06T02:49:42;94051.25;;;1.25;100.00
39739;BME280;25422;48.286;8.484;2024-03-06T02:52:07;94055.00;;;1.32;100.00
39739;BME280;25422;48.286;8.484;2024-03-06T02:54:33;94047.13;;;1.34;100.00
39739;BME280;25422;48.286;8.484;2024-03-06T02:56:58;94050.75;;;1.31;100.00
39739;BME280;25422;48.286;8.484;2024-03-06T02:59:23;94049.38;;;1.39;100.00
39739;BME280;25422;48.286;8.484;2024-03-06T03:01:49;94042.22;;;1.42;100.00
39739;BME280;25422;48.286;8.484;2024-03-06T03:04:14;94045.63;;;1.43;100.00
39739;BME280;25422;48.286;8.484;2024-03-06T03:06:40;94050.78;;;1.43;100.00
39739;BME280;25422;48.286;8.484;2024-03-06T03:09:05;94051.47;;;1.45;100.00
39739;BME280;25422;48.286;8.484;2024-03-06T03:11:31;94056.41;;;1.48;100.00
39739;BME280;25422;48.286;8.484;2024-03-06T03:13:57;94051.94;;;1.50;100.00
39739;BME280;25422;48.286;8.484;2024-03-06T03:16:22;94057.09;;;1.50;100.00
39739;BME280;25422;48.286;8.484;2024-03-06T03:18:48;94053.59;;;1.51;100.00
39739;BME280;25422;48.286;8.484;2024-03-06T03:21:14;94055.13;;;1.54;100.00
39739;BME280;25422;48.286;8.484;2024-03-06T03:23:40;94055.81;;;1.56;100.00
39739;BME280;25422;48.286;8.484;2024-03-06T03:26:07;94059.22;;;1.56;100.00
39739;BME280;25422;48.286;8.484;2024-03-06T03:28:32;94056.41;;;1.59;100.00
39739;BME280;25422;48.286;8.484;2024-03-06T03:30:58;94058.63;;;1.64;100.00
39739;BME280;25422;48.286;8.484;2024-03-06T03:33:23;94061.06;;;1.65;100.00
39739;BME280;25422;48.286;8.484;2024-03-06T03:35:49;94067.31;;;1.63;100.00
39739;BME280;25422;48.286;8.484;2024-03-06T03:38:14;94061.19;;;1.64;100.00
39739;BME280;25422;48.286;8.484;2024-03-06T03:40:40;94056.16;;;1.62;100.00
39739;BME280;25422;48.286;8.484;2024-03-06T03:43:05;94067.19;;;1.64;100.00
39739;BME280;25422;48.286;8.484;2024-03-06T03:45:34;94069.19;;;1.61;100.00
39739;BME280;25422;48.286;8.484;2024-03-06T03:48:01;94068.38;;;1.60;100.00
39739;BME280;25422;48.286;8.484;2024-03-06T03:50:28;94078.69;;;1.60;100.00
39739;BME280;25422;48.286;8.484;2024-03-06T03:52:55;94081.13;;;1.62;100.00
39739;BME280;25422;48.286;8.484;2024-03-06T03:55:24;94078.56;;;1.62;100.00
39739;BME280;25422;48.286;8.484;2024-03-06T03:57:50;94085.59;;;1.60;100.00
39739;BME280;25422;48.286;8.484;2024-03-06T04:00:15;94081.25;;;1.60;100.00
39739;BME280;25422;48.286;8.484;2024-03-06T04:02:41;94089.00;;;1.60;100.00
39739;BME280;25422;48.286;8.484;2024-03-06T04:05:07;94089.69;;;1.62;100.00
39739;BME280;25422;48.286;8.484;2024-03-06T04:07:33;94086.28;;;1.62;100.00
39739;BME280;25422;48.286;8.484;2024-03-06T04:09:58;94080.44;;;1.60;100.00
39739;BME280;25422;48.286;8.484;2024-03-06T04:12:24;94093.31;;;1.60;100.00
39739;BME280;25422;48.286;8.484;2024-03-06T04:14:50;94087.47;;;1.58;100.00
39739;BME280;25422;48.286;8.484;2024-03-06T04:17:15;94088.41;;;1.57;100.00
39739;BME280;25422;48.286;8.484;2024-03-06T04:19:40;94090.06;;;1.58;100.00
39739;BME280;25422;48.286;8.484;2024-03-06T04:22:06;94097.91;;;1.56;100.00
39739;BME280;25422;48.286;8.484;2024-03-06T04:24:31;94100.25;;;1.59;100.00
39739;BME280;25422;48.286;8.484;2024-03-06T04:26:57;94094.38;;;1.57;100.00
39739;BME280;25422;48.286;8.484;2024-03-06T04:29:22;94095.22;;;1.58;100.00
39739;BME280;25422;48.286;8.484;2024-03-06T04:31:47;94094.84;;;1.62;100.00
39739;BME280;25422;48.286;8.484;2024-03-06T04:34:13;94097.53;;;1.61;100.00
39739;BME280;25422;48.286;8.484;2024-03-06T04:36:38;94100.38;;;1.58;100.00
39739;BME280;25422;48.286;8.484;2024-03-06T04:39:04;94102.81;;;1.59;100.00
39739;BME280;25422;48.286;8.484;2024-03-06T04:41:33;94108.66;;;1.61;100.00
39739;BME280;25422;48.286;8.484;2024-03-06T04:43:58;94110.31;;;1.62;100.00
39739;BME280;25422;48.286;8.484;2024-03-06T04:46:26;94113.00;;;1.61;100.00
39739;BME280;25422;48.286;8.484;2024-03-06T04:48:52;94110.31;;;1.62;100.00
39739;BME280;25422;48.286;8.484;2024-03-06T04:51:17;94115.59;;;1.61;100.00
39739;BME280;25422;48.286;8.484;2024-03-06T04:53:45;94114.78;;;1.60;100.00
39739;BME280;25422;48.286;8.484;2024-03-06T04:56:10;94121.56;;;1.61;100.00
39739;BME280;25422;48.286;8.484;2024-03-06T04:58:36;94127.56;;;1.62;100.00
39739;BME280;25422;48.286;8.484;2024-03-06T05:01:01;94130.81;;;1.64;100.00
39739;BME280;25422;48.286;8.484;2024-03-06T05:03:28;94127.44;;;1.63;100.00
39739;BME280;25422;48.286;8.484;2024-03-06T05:05:54;94137.50;;;1.66;100.00
39739;BME280;25422;48.286;8.484;2024-03-06T05:08:19;94133.19;;;1.67;100.00
39739;BME280;25422;48.286;8.484;2024-03-06T05:10:46;94137.28;;;1.69;100.00
39739;BME280;25422;48.286;8.484;2024-03-06T05:13:11;94140.56;;;1.72;100.00
39739;BME280;25422;48.286;8.484;2024-03-06T05:15:37;94141.63;;;1.69;100.00
39739;BME280;25422;48.286;8.484;2024-03-06T05:18:04;94139.84;;;1.69;100.00
39739;BME280;25422;48.286;8.484;2024-03-06T05:20:30;94145.00;;;1.69;100.00
39739;BME280;25422;48.286;8.484;2024-03-06T05:22:58;94149.13;;;1.72;100.00
39739;BME280;25422;48.286;8.484;2024-03-06T05:25:24;94144.81;;;1.73;100.00
39739;BME280;25422;48.286;8.484;2024-03-06T05:27:50;94154.28;;;1.72;100.00
39739;BME280;25422;48.286;8.484;2024-03-06T05:30:15;94154.50;;;1.69;100.00
39739;BME280;25422;48.286;8.484;2024-03-06T05:32:41;94159.56;;;1.71;100.00
39739;BME280;25422;48.286;8.484;2024-03-06T05:35:09;94161.19;;;1.72;100.00
39739;BME280;25422;48.286;8.484;2024-03-06T05:37:35;94161.09;;;1.73;100.00
39739;BME280;25422;48.286;8.484;2024-03-06T05:40:01;94165.44;;;1.73;100.00
39739;BME280;25422;48.286;8.484;2024-03-06T05:42:30;94169.88;;;1.71;100.00
39739;BME280;25422;48.286;8.484;2024-03-06T05:44:57;94171.63;;;1.70;100.00
39739;BME280;25422;48.286;8.484;2024-03-06T05:47:26;94174.81;;;1.74;100.00
39739;BME280;25422;48.286;8.484;2024-03-06T05:49:52;94173.06;;;1.74;100.00
39739;BME280;25422;48.286;8.484;2024-03-06T05:52:17;94181.72;;;1.73;100.00
39739;BME280;25422;48.286;8.484;2024-03-06T05:54:43;94184.19;;;1.75;100.00
39739;BME280;25422;48.286;8.484;2024-03-06T05:57:09;94182.31;;;1.77;100.00
39739;BME280;25422;48.286;8.484;2024-03-06T05:59:34;94186.75;;;1.75;100.00
39739;BME280;25422;48.286;8.484;2024-03-06T06:01:59;94187.59;;;1.75;100.00
39739;BME280;25422;48.286;8.484;2024-03-06T06:04:25;94191.00;;;1.76;100.00
39739;BME280;25422;48.286;8.484;2024-03-06T06:06:50;94184.91;;;1.77;100.00
39739;BME280;25422;48.286;8.484;2024-03-06T06:09:16;94191.09;;;1.74;100.00
39739;BME280;25422;48.286;8.484;2024-03-06T06:11:43;94194.38;;;1.76;100.00
39739;BME280;25422;48.286;8.484;2024-03-06T06:14:08;94191.09;;;1.74;100.00
39739;BME280;25422;48.286;8.484;2024-03-06T06:16:38;94194.50;;;1.75;100.00
39739;BME280;25422;48.286;8.484;2024-03-06T06:19:06;94198.72;;;1.76;100.00
39739;BME280;25422;48.286;8.484;2024-03-06T06:21:32;94200.38;;;1.77;100.00
39739;BME280;25422;48.286;8.484;2024-03-06T06:23:58;94196.16;;;1.76;100.00
39739;BME280;25422;48.286;8.484;2024-03-06T06:26:23;94209.75;;;1.78;100.00
39739;BME280;25422;48.286;8.484;2024-03-06T06:28:48;94204.38;;;1.81;100.00
39739;BME280;25422;48.286;8.484;2024-03-06T06:31:14;94207.88;;;1.80;100.00
39739;BME280;25422;48.286;8.484;2024-03-06T06:33:39;94207.88;;;1.80;100.00
39739;BME280;25422;48.286;8.484;2024-03-06T06:36:05;94208.69;;;1.80;100.00
39739;BME280;25422;48.286;8.484;2024-03-06T06:38:30;94213.50;;;1.85;100.00
39739;BME280;25422;48.286;8.484;2024-03-06T06:40:56;94211.38;;;1.79;100.00
39739;BME280;25422;48.286;8.484;2024-03-06T06:43:21;94211.88;;;1.84;100.00
39739;BME280;25422;48.286;8.484;2024-03-06T06:45:47;94214.31;;;1.85;100.00
39739;BME280;25422;48.286;8.484;2024-03-06T06:48:12;94220.09;;;1.89;100.00
39739;BME280;25422;48.286;8.484;2024-03-06T06:50:38;94230.88;;;1.94;100.00
39739;BME280;25422;48.286;8.484;2024-03-06T06:53:03;94224.19;;;1.92;100.00
39739;BME280;25422;48.286;8.484;2024-03-06T06:55:30;94219.38;;;1.87;100.00
39739;BME280;25422;48.286;8.484;2024-03-06T06:57:55;94230.88;;;1.94;100.00
39739;BME280;25422;48.286;8.484;2024-03-06T07:00:21;94235.09;;;1.95;100.00
39739;BME280;25422;48.286;8.484;2024-03-06T07:02:48;94236.25;;;1.91;100.00
39739;BME280;25422;48.286;8.484;2024-03-06T07:05:14;94234.63;;;1.90;100.00
39739;BME280;25422;48.286;8.484;2024-03-06T07:07:39;94234.88;;;1.98;100.00
39739;BME280;25422;48.286;8.484;2024-03-06T07:10:06;94238.38;;;1.97;100.00
39739;BME280;25422;48.286;8.484;2024-03-06T07:12:32;94234.16;;;1.96;100.00
39739;BME280;25422;48.286;8.484;2024-03-06T07:14:58;94242.81;;;1.95;100.00
39739;BME280;25422;48.286;8.484;2024-03-06T07:17:23;94236.53;;;1.99;100.00
39739;BME280;25422;48.286;8.484;2024-03-06T07:19:49;94242.63;;;1.98;100.00
39739;BME280;25422;48.286;8.484;2024-03-06T07:22:16;94238.25;;;1.99;100.00
39739;BME280;25422;48.286;8.484;2024-03-06T07:24:41;94236.28;;;2.02;100.00
39739;BME280;25422;48.286;8.484;2024-03-06T07:27:07;94241.22;;;2.06;100.00
39739;BME280;25422;48.286;8.484;2024-03-06T07:29:36;94243.34;;;2.12;100.00
39739;BME280;25422;48.286;8.484;2024-03-06T07:32:02;94245.56;;;2.05;100.00
39739;BME280;25422;48.286;8.484;2024-03-06T07:34:28;94254.22;;;2.15;100.00
39739;BME280;25422;48.286;8.484;2024-03-06T07:36:53;94257.66;;;2.16;100.00
39739;BME280;25422;48.286;8.484;2024-03-06T07:39:19;94257.66;;;2.16;100.00
39739;BME280;25422;48.286;8.484;2024-03-06T07:41:45;94257.06;;;2.12;100.00
39739;BME280;25422;48.286;8.484;2024-03-06T07:44:10;94267.25;;;2.14;100.00
39739;BME280;25422;48.286;8.484;2024-03-06T07:46:36;94260.34;;;2.14;100.00
39739;BME280;25422;48.286;8.484;2024-03-06T07:49:02;94267.72;;;2.19;100.00
39739;BME280;25422;48.286;8.484;2024-03-06T07:51:34;94269.97;;;2.12;100.00
39739;BME280;25422;48.286;8.484;2024-03-06T07:54:01;94268.78;;;2.16;100.00
39739;BME280;25422;48.286;8.484;2024-03-06T07:56:26;94274.31;;;2.12;100.00
39739;BME280;25422;48.286;8.484;2024-03-06T07:58:52;94273.25;;;2.14;100.00
39739;BME280;25422;48.286;8.484;2024-03-06T08:01:21;94270.56;;;2.16;100.00
39739;BME280;25422;48.286;8.484;2024-03-06T08:03:47;94281.22;;;2.11;100.00
39739;BME280;25422;48.286;8.484;2024-03-06T08:06:13;94278.75;;;2.10;100.00
39739;BME280;25422;48.286;8.484;2024-03-06T08:08:42;94285.19;;;2.15;100.00
39739;BME280;25422;48.286;8.484;2024-03-06T08:11:10;94288.16;;;2.22;100.00
39739;BME280;25422;48.286;8.484;2024-03-06T08:13:37;94291.66;;;2.21;100.00
39739;BME280;25422;48.286;8.484;2024-03-06T08:16:02;94287.22;;;2.23;100.00
39739;BME280;25422;48.286;8.484;2024-03-06T08:18:29;94290.84;;;2.21;100.00
39739;BME280;25422;48.286;8.484;2024-03-06T08:20:55;94289.78;;;2.34;100.00
39739;BME280;25422;48.286;8.484;2024-03-06T08:23:20;94290.28;;;2.40;100.00
39739;BME280;25422;48.286;8.484;2024-03-06T08:25:45;94293.44;;;2.43;100.00
39739;BME280;25422;48.286;8.484;2024-03-06T08:28:11;94297.09;;;2.29;100.00
39739;BME280;25422;48.286;8.484;2024-03-06T08:30:37;94297.31;;;2.38;100.00
39739;BME280;25422;48.286;8.484;2024-03-06T08:33:02;94296.47;;;2.37;100.00
39739;BME280;25422;48.286;8.484;2024-03-06T08:35:28;94301.78;;;2.58;100.00
39739;BME280;25422;48.286;8.484;2024-03-06T08:37:53;94297.66;;;2.67;100.00
39739;BME280;25422;48.286;8.484;2024-03-06T08:40:19;94293.31;;;2.45;100.00
39739;BME280;25422;48.286;8.484;2024-03-06T08:42:44;94298.25;;;2.48;100.00
39739;BME280;25422;48.286;8.484;2024-03-06T08:45:12;94301.44;;;2.51;100.00
39739;BME280;25422;48.286;8.484;2024-03-06T08:47:38;94306.03;;;2.59;100.00
39739;BME280;25422;48.286;8.484;2024-03-06T08:50:04;94303.88;;;2.53;100.00
39739;BME280;25422;48.286;8.484;2024-03-06T08:52:29;94303.41;;;2.48;100.00
39739;BME280;25422;48.286;8.484;2024-03-06T08:54:58;94306.59;;;2.51;100.00
39739;BME280;25422;48.286;8.484;2024-03-06T08:57:23;94313.03;;;2.68;100.00
39739;BME280;25422;48.286;8.484;2024-03-06T08:59:51;94321.03;;;2.65;100.00
39739;BME280;25422;48.286;8.484;2024-03-06T09:02:18;94314.81;;;2.68;100.00
39739;BME280;25422;48.286;8.484;2024-03-06T09:04:45;94312.44;;;2.53;100.00
39739;BME280;25422;48.286;8.484;2024-03-06T09:07:12;94326.31;;;2.75;100.00
39739;BME280;25422;48.286;8.484;2024-03-06T09:09:38;94317.72;;;2.52;100.00
39739;BME280;25422;48.286;8.484;2024-03-06T09:12:09;94328.66;;;2.67;100.00
39739;BME280;25422;48.286;8.484;2024-03-06T09:14:38;94324.91;;;2.60;100.00
39739;BME280;25422;48.286;8.484;2024-03-06T09:17:04;94323.13;;;2.60;100.00
39739;BME280;25422;48.286;8.484;2024-03-06T09:19:31;94325.63;;;2.73;100.00
39739;BME280;25422;48.286;8.484;2024-03-06T09:21:56;94326.31;;;2.64;100.00
39739;BME280;25422;48.286;8.484;2024-03-06T09:24:23;94323.59;;;2.77;100.00
39739;BME280;25422;48.286;8.484;2024-03-06T09:26:49;94323.22;;;2.93;100.00
39739;BME280;25422;48.286;8.484;2024-03-06T09:29:15;94322.06;;;2.85;100.00
39739;BME280;25422;48.286;8.484;2024-03-06T09:31:41;94323.72;;;2.75;100.00
39739;BME280;25422;48.286;8.484;2024-03-06T09:34:07;94336.84;;;3.06;100.00
39739;BME280;25422;48.286;8.484;2024-03-06T09:36:32;94339.34;;;2.96;100.00
39739;BME280;25422;48.286;8.484;2024-03-06T09:39:01;94329.59;;;2.89;100.00
39739;BME280;25422;48.286;8.484;2024-03-06T09:41:26;94333.81;;;2.90;100.00
39739;BME280;25422;48.286;8.484;2024-03-06T09:43:51;94333.78;;;3.01;100.00
39739;BME280;25422;48.286;8.484;2024-03-06T09:46:17;94336.25;;;3.02;100.00
39739;BME280;25422;48.286;8.484;2024-03-06T09:48:47;94333.94;;;2.77;100.00
39739;BME280;25422;48.286;8.484;2024-03-06T09:51:13;94333.69;;;2.91;100.00
39739;BME280;25422;48.286;8.484;2024-03-06T09:53:40;94333.56;;;2.93;100.00
39739;BME280;25422;48.286;8.484;2024-03-06T09:56:05;94334.88;;;2.87;100.00
39739;BME280;25422;48.286;8.484;2024-03-06T09:58:31;94337.69;;;3.07;100.00
39739;BME280;25422;48.286;8.484;2024-03-06T10:01:00;94337.69;;;3.07;100.00
39739;BME280;25422;48.286;8.484;2024-03-06T10:03:28;94336.59;;;3.20;100.00
39739;BME280;25422;48.286;8.484;2024-03-06T10:05:54;94339.06;;;3.22;100.00
39739;BME280;25422;48.286;8.484;2024-03-06T10:08:21;94328.25;;;3.17;100.00
39739;BME280;25422;48.286;8.484;2024-03-06T10:10:50;94331.00;;;3.48;100.00
39739;BME280;25422;48.286;8.484;2024-03-06T10:13:16;94333.41;;;3.61;100.00
39739;BME280;25422;48.286;8.484;2024-03-06T10:15:54;94338.25;;;3.65;100.00
39739;BME280;25422;48.286;8.484;2024-03-06T10:18:20;94336.75;;;3.84;100.00
39739;BME280;25422;48.286;8.484;2024-03-06T10:20:45;94328.53;;;3.79;100.00
39739;BME280;25422;48.286;8.484;2024-03-06T10:23:11;94328.75;;;3.87;100.00
39739;BME280;25422;48.286;8.484;2024-03-06T10:25:37;94317.88;;;3.93;100.00
39739;BME280;25422;48.286;8.484;2024-03-06T10:28:06;94328.34;;;3.70;100.00
39739;BME280;25422;48.286;8.484;2024-03-06T10:30:33;94331.16;;;3.67;100.00
39739;BME280;25422;48.286;8.484;2024-03-06T10:33:04;94334.19;;;3.72;100.00
39739;BME280;25422;48.286;8.484;2024-03-06T10:35:32;94325.09;;;3.57;100.00
39739;BME280;25422;48.286;8.484;2024-03-06T10:38:00;94329.75;;;3.75;100.00
39739;BME280;25422;48.286;8.484;2024-03-06T10:40:26;94323.63;;;3.32;100.00
39739;BME280;25422;48.286;8.484;2024-03-06T10:42:55;94332.13;;;3.66;100.00
39739;BME280;25422;48.286;8.484;2024-03-06T10:45:23;94334.38;;;3.60;100.00
39739;BME280;25422;48.286;8.484;2024-03-06T10:47:54;94341.38;;;3.69;100.00
39739;BME280;25422;48.286;8.484;2024-03-06T10:50:20;94340.81;;;3.65;100.00
39739;BME280;25422;48.286;8.484;2024-03-06T10:52:47;94338.91;;;3.79;100.00
39739;BME280;25422;48.286;8.484;2024-03-06T10:55:15;94348.06;;;3.83;100.00
39739;BME280;25422;48.286;8.484;2024-03-06T10:57:41;94345.13;;;3.44;100.00
39739;BME280;25422;48.286;8.484;2024-03-06T11:00:08;94345.53;;;3.60;100.00
39739;BME280;25422;48.286;8.484;2024-03-06T11:02:33;94349.22;;;3.46;100.00
39739;BME280;25422;48.286;8.484;2024-03-06T11:05:02;94342.28;;;3.47;100.00
39739;BME280;25422;48.286;8.484;2024-03-06T11:07:30;94349.91;;;3.48;100.00
39739;BME280;25422;48.286;8.484;2024-03-06T11:09:58;94348.97;;;3.49;100.00
39739;BME280;25422;48.286;8.484;2024-03-06T11:12:36;94346.13;;;3.64;100.00
39739;BME280;25422;48.286;8.484;2024-03-06T11:15:15;94350.97;;;3.90;100.00
39739;BME280;25422;48.286;8.484;2024-03-06T11:17:42;94348.13;;;3.60;100.00
39739;BME280;25422;48.286;8.484;2024-03-06T11:20:12;94346.34;;;3.61;100.00
39739;BME280;25422;48.286;8.484;2024-03-06T11:28:22;94347.47;;;3.47;100.00
39739;BME280;25422;48.286;8.484;2024-03-06T11:30:55;94356.81;;;3.70;100.00
39739;BME280;25422;48.286;8.484;2024-03-06T11:33:22;94353.91;;;3.85;100.00
39739;BME280;25422;48.286;8.484;2024-03-06T11:36:26;94355.41;;;3.66;100.00
39739;BME280;25422;48.286;8.484;2024-03-06T11:39:02;94351.03;;;3.67;100.00
39739;BME280;25422;48.286;8.484;2024-03-06T11:41:49;94350.22;;;3.66;100.00
39739;BME280;25422;48.286;8.484;2024-03-06T11:44:19;94354.22;;;3.70;100.00
39739;BME280;25422;48.286;8.484;2024-03-06T11:46:49;94351.44;;;3.62;100.00
39739;BME280;25422;48.286;8.484;2024-03-06T11:49:24;94350.72;;;3.60;100.00
39739;BME280;25422;48.286;8.484;2024-03-06T11:51:54;94345.66;;;3.59;100.00
39739;BME280;25422;48.286;8.484;2024-03-06T11:54:20;94344.81;;;3.69;100.00
39739;BME280;25422;48.286;8.484;2024-03-06T11:56:50;94330.28;;;3.57;100.00
39739;BME280;25422;48.286;8.484;2024-03-06T11:59:21;94336.59;;;3.64;100.00
39739;BME280;25422;48.286;8.484;2024-03-06T12:01:46;94345.13;;;3.76;100.00
39739;BME280;25422;48.286;8.484;2024-03-06T12:04:13;94343.81;;;3.49;100.00
39739;BME280;25422;48.286;8.484;2024-03-06T12:06:38;94342.09;;;3.71;100.00
39739;BME280;25422;48.286;8.484;2024-03-06T12:09:04;94344.41;;;3.53;100.00
39739;BME280;25422;48.286;8.484;2024-03-06T12:11:29;94345.28;;;3.63;100.00
39739;BME280;25422;48.286;8.484;2024-03-06T12:13:56;94345.81;;;3.46;100.00
39739;BME280;25422;48.286;8.484;2024-03-06T12:16:22;94347.22;;;3.50;100.00
39739;BME280;25422;48.286;8.484;2024-03-06T12:18:57;94339.97;;;3.76;100.00
39739;BME280;25422;48.286;8.484;2024-03-06T12:21:30;94338.97;;;3.56;100.00
39739;BME280;25422;48.286;8.484;2024-03-06T12:24:03;94342.66;;;3.42;100.00
39739;BME280;25422;48.286;8.484;2024-03-06T12:26:29;94349.22;;;3.46;100.00
39739;BME280;25422;48.286;8.484;2024-03-06T12:29:04;94335.97;;;3.40;100.00
39739;BME280;25422;48.286;8.484;2024-03-06T12:31:31;94336.66;;;3.42;100.00
39739;BME280;25422;48.286;8.484;2024-03-06T12:33:57;94348.03;;;3.50;100.00
39739;BME280;25422;48.286;8.484;2024-03-06T12:36:25;94339.81;;;3.45;100.00
39739;BME280;25422;48.286;8.484;2024-03-06T12:39:09;94347.41;;;3.26;100.00
39739;BME280;25422;48.286;8.484;2024-03-06T12:41:41;94344.72;;;3.04;100.00
39739;BME280;25422;48.286;8.484;2024-03-06T12:44:07;94344.00;;;3.14;100.00
39739;BME280;25422;48.286;8.484;2024-03-06T12:46:33;94351.88;;;3.24;100.00
39739;BME280;25422;48.286;8.484;2024-03-06T12:48:59;94354.78;;;3.30;100.00
39739;BME280;25422;48.286;8.484;2024-03-06T12:51:24;94353.75;;;3.10;100.00
39739;BME280;25422;48.286;8.484;2024-03-06T12:53:50;94351.78;;;3.14;100.00
39739;BME280;25422;48.286;8.484;2024-03-06T12:56:17;94343.25;;;3.34;100.00
39739;BME280;25422;48.286;8.484;2024-03-06T12:58:42;94341.28;;;3.27;100.00
39739;BME280;25422;48.286;8.484;2024-03-06T13:01:07;94334.13;;;3.19;100.00
39739;BME280;25422;48.286;8.484;2024-03-06T13:03:33;94338.81;;;3.25;100.00